Time;durP1;ratioP1;P1;durP2;ratioP2;P2;SDS_P1;SDS_P2;PMS_P1;PMS_P2;Temp;Humidity;BMP_temperature;BMP_pressure;BME280_temperature;BME280_humidity;BME280_pressure;Samples;Min_cycle;Max_cycle;Signal;HPM_P1;HPM_P2
2023/09/26 00:01:29;;;;;;;2.53;2.43;;;;;;;;;;4953284;28;20223;-84
2023/09/26 00:03:55;;;;;;;2.40;2.30;;;;;;;;;;4947947;28;20273;-85
2023/09/26 00:06:21;;;;;;;2.70;2.50;;;;;;;;;;4934143;28;20223;-84
2023/09/26 00:08:47;;;;;;;3.00;2.80;;;;;;;;;;4935746;28;20227;-84
2023/09/26 00:11:13;;;;;;;2.90;2.70;;;;;;;;;;4952779;28;20215;-84
2023/09/26 00:13:39;;;;;;;2.80;2.60;;;;;;;;;;4936012;28;20233;-83
2023/09/26 00:16:10;;;;;;;3.50;3.20;;;;;;;;;;4904060;28;20223;-84
2023/09/26 00:18:35;;;;;;;3.00;2.80;;;;;;;;;;4956045;28;20287;-87
2023/09/26 00:21:03;;;;;;;2.70;2.50;;;;;;;;;;4931807;28;20223;-85
2023/09/26 00:23:31;;;;;;;2.50;2.30;;;;;;;;;;4947081;28;20290;-86
2023/09/26 00:25:57;;;;;;;2.37;2.27;;;;;;;;;;4932366;29;20219;-84
2023/09/26 00:28:28;;;;;;;2.50;2.40;;;;;;;;;;4918141;28;20221;-85
2023/09/26 00:30:58;;;;;;;2.70;2.60;;;;;;;;;;4906857;29;20227;-84
2023/09/26 00:33:26;;;;;;;3.27;2.90;;;;;;;;;;4921724;28;20314;-85
2023/09/26 00:35:52;;;;;;;3.07;2.87;;;;;;;;;;4941056;28;20221;-83
2023/09/26 00:38:19;;;;;;;2.70;2.60;;;;;;;;;;4953372;28;20739;-86
2023/09/26 00:40:45;;;;;;;2.60;2.40;;;;;;;;;;4937439;28;20234;-85
2023/09/26 00:43:25;;;;;;;3.20;2.90;;;;;;;;;;4962209;28;20271;-87
2023/09/26 00:45:53;;;;;;;2.73;2.53;;;;;;;;;;4966007;28;20233;-85
2023/09/26 00:48:18;;;;;;;3.40;3.10;;;;;;;;;;4932746;28;20216;-85
2023/09/26 00:50:47;;;;;;;3.10;2.90;;;;;;;;;;4948394;28;20238;-86
2023/09/26 00:53:12;;;;;;;2.90;2.70;;;;;;;;;;4939298;28;20707;-85
2023/09/26 00:55:38;;;;;;;4.03;2.77;;;;;;;;;;4939246;28;20223;-87
2023/09/26 00:58:08;;;;;;;3.17;2.87;;;;;;;;;;4911696;28;20578;-84
2023/09/26 01:00:34;;;;;;;2.80;2.60;;;;;;;;;;4940586;28;20241;-84
2023/09/26 01:02:59;;;;;;;2.73;2.53;;;;;;;;;;4937647;28;20572;-85
2023/09/26 01:05:25;;;;;;;2.77;2.57;;;;;;;;;;4939682;28;20219;-84
2023/09/26 01:07:51;;;;;;;3.00;2.73;;;;;;;;;;4939296;28;20234;-84
2023/09/26 01:10:17;;;;;;;2.70;2.50;;;;;;;;;;4906243;28;20223;-84
2023/09/26 01:12:47;;;;;;;2.53;2.33;;;;;;;;;;4944411;29;20227;-84
2023/09/26 01:15:13;;;;;;;2.73;2.53;;;;;;;;;;4924138;28;20218;-86
2023/09/26 01:17:39;;;;;;;3.80;2.77;;;;;;;;;;4913030;29;20236;-85
2023/09/26 01:20:14;;;;;;;2.77;2.57;;;;;;;;;;4937605;28;20226;-84
2023/09/26 01:22:44;;;;;;;2.63;2.43;;;;;;;;;;4923005;29;20231;-86
2023/09/26 01:25:15;;;;;;;3.37;2.37;;;;;;;;;;4914858;28;20263;-84
2023/09/26 01:27:41;;;;;;;2.90;2.70;;;;;;;;;;4945344;29;20215;-85
2023/09/26 01:30:11;;;;;;;2.87;2.67;;;;;;;;;;4955979;28;20229;-85
2023/09/26 01:32:38;;;;;;;2.73;2.53;;;;;;;;;;4941803;28;20779;-85
2023/09/26 01:35:05;;;;;;;2.77;2.57;;;;;;;;;;4921681;28;20949;-86
2023/09/26 01:37:31;;;;;;;3.30;3.00;;;;;;;;;;4917096;29;20223;-84
2023/09/26 01:39:58;;;;;;;2.33;2.23;;;;;;;;;;4924448;29;20602;-85
2023/09/26 01:42:27;;;;;;;2.60;2.40;;;;;;;;;;4916576;29;20282;-85
2023/09/26 01:44:52;;;;;;;3.43;2.83;;;;;;;;;;4947908;29;20290;-86
2023/09/26 01:47:26;;;;;;;2.60;2.40;;;;;;;;;;4928869;28;20214;-86
2023/09/26 01:49:54;;;;;;;2.70;2.50;;;;;;;;;;4939532;29;20291;-86
2023/09/26 01:52:19;;;;;;;2.90;2.80;;;;;;;;;;4914125;28;20219;-83
2023/09/26 01:54:50;;;;;;;3.13;2.77;;;;;;;;;;4938620;29;20229;-84
2023/09/26 01:57:15;;;;;;;3.10;2.90;;;;;;;;;;4952714;28;20230;-83
2023/09/26 01:59:41;;;;;;;2.97;2.80;;;;;;;;;;4933983;29;20223;-86
2023/09/26 02:02:09;;;;;;;3.00;2.80;;;;;;;;;;4976774;28;20214;-85
2023/09/26 02:04:35;;;;;;;2.60;2.50;;;;;;;;;;4920928;29;20227;-83
2023/09/26 02:07:03;;;;;;;2.80;2.60;;;;;;;;;;4948685;28;20726;-86
2023/09/26 02:09:30;;;;;;;2.70;2.60;;;;;;;;;;4925576;28;20230;-87
2023/09/26 02:11:56;;;;;;;2.77;2.57;;;;;;;;;;4940183;28;20222;-87
2023/09/26 02:14:27;;;;;;;2.80;2.60;;;;;;;;;;4948082;28;20222;-85
2023/09/26 02:16:57;;;;;;;2.87;2.60;;;;;;;;;;4930457;29;20634;-86
2023/09/26 02:19:22;;;;;;;3.17;2.90;;;;;;;;;;4931106;28;20211;-85
2023/09/26 02:21:48;;;;;;;2.80;2.60;;;;;;;;;;4945518;28;20304;-85
2023/09/26 02:24:13;;;;;;;2.87;2.63;;;;;;;;;;4955826;28;20215;-86
2023/09/26 02:26:39;;;;;;;2.70;2.50;;;;;;;;;;4947713;28;20230;-85
2023/09/26 02:29:09;;;;;;;2.43;2.30;;;;;;;;;;4948601;28;20227;-85
2023/09/26 02:31:34;;;;;;;3.90;2.63;;;;;;;;;;4925567;29;20293;-86
2023/09/26 02:34:03;;;;;;;3.00;2.80;;;;;;;;;;4956628;28;20231;-85
2023/09/26 02:36:30;;;;;;;3.23;3.03;;;;;;;;;;4924482;29;20217;-85
2023/09/26 02:38:56;;;;;;;3.20;3.00;;;;;;;;;;4925263;29;20231;-85
2023/09/26 02:41:22;;;;;;;3.20;3.00;;;;;;;;;;4939803;28;20234;-85
2023/09/26 02:43:55;;;;;;;3.70;3.50;;;;;;;;;;4940360;28;20277;-85
2023/09/26 02:46:20;;;;;;;3.30;3.07;;;;;;;;;;4903535;28;20734;-85
2023/09/26 02:48:48;;;;;;;3.20;3.00;;;;;;;;;;4905948;29;20227;-86
2023/09/26 02:51:18;;;;;;;3.67;3.40;;;;;;;;;;4938176;28;20258;-84
2023/09/26 02:53:44;;;;;;;3.43;3.23;;;;;;;;;;4925301;29;20214;-85
2023/09/26 02:56:10;;;;;;;3.37;3.17;;;;;;;;;;4924209;28;20222;-85
2023/09/26 02:58:35;;;;;;;3.10;2.90;;;;;;;;;;4925368;29;20231;-85
2023/09/26 03:01:01;;;;;;;3.10;2.80;;;;;;;;;;4957370;28;20254;-84
2023/09/26 03:03:27;;;;;;;3.00;2.80;;;;;;;;;;4923791;28;20229;-84
2023/09/26 03:05:53;;;;;;;3.60;3.30;;;;;;;;;;4924216;29;20226;-84
2023/09/26 03:08:21;;;;;;;3.47;3.17;;;;;;;;;;4940230;28;20605;-85
2023/09/26 03:10:50;;;;;;;3.70;3.40;;;;;;;;;;4939284;29;20226;-84
2023/09/26 03:13:15;;;;;;;3.50;3.20;;;;;;;;;;4937441;28;20597;-84
2023/09/26 03:15:41;;;;;;;5.00;3.53;;;;;;;;;;4955716;28;20720;-84
2023/09/26 03:18:07;;;;;;;3.73;3.53;;;;;;;;;;4938215;28;20230;-85
2023/09/26 03:20:39;;;;;;;3.63;3.33;;;;;;;;;;4910706;29;20645;-85
2023/09/26 03:23:04;;;;;;;3.33;3.13;;;;;;;;;;4953521;28;20226;-84
2023/09/26 03:25:33;;;;;;;3.83;3.50;;;;;;;;;;4938998;28;20223;-84
2023/09/26 03:28:03;;;;;;;4.00;3.70;;;;;;;;;;4942800;28;20706;-83
2023/09/26 03:30:31;;;;;;;4.20;3.60;;;;;;;;;;4937266;29;20721;-84
2023/09/26 03:32:56;;;;;;;3.43;3.17;;;;;;;;;;4948696;28;20218;-85
2023/09/26 03:35:24;;;;;;;3.70;3.40;;;;;;;;;;4945100;28;20221;-85
2023/09/26 03:37:51;;;;;;;3.23;3.03;;;;;;;;;;4939994;29;20221;-84
2023/09/26 03:40:18;;;;;;;3.27;3.07;;;;;;;;;;4967551;28;20225;-84
2023/09/26 03:42:48;;;;;;;3.73;3.43;;;;;;;;;;4936043;28;20620;-85
2023/09/26 03:45:14;;;;;;;3.77;3.40;;;;;;;;;;4954898;28;20409;-84
2023/09/26 03:47:40;;;;;;;3.43;3.17;;;;;;;;;;4924444;28;20791;-79
2023/09/26 03:50:06;;;;;;;3.30;3.10;;;;;;;;;;4932392;28;20227;-79
2023/09/26 03:52:32;;;;;;;4.03;3.57;;;;;;;;;;4952675;28;20644;-78
2023/09/26 03:54:57;;;;;;;3.43;3.13;;;;;;;;;;4927630;28;20285;-78
2023/09/26 03:57:26;;;;;;;3.40;3.13;;;;;;;;;;4944238;28;20908;-78
2023/09/26 04:03:53;;;;;;;3.00;2.80;;;;;;;;;;4952600;28;20233;-79
2023/09/26 04:06:19;;;;;;;6.40;3.00;;;;;;;;;;4967651;28;20318;-79
2023/09/26 04:08:49;;;;;;;3.53;3.33;;;;;;;;;;4944811;28;20219;-79
2023/09/26 04:11:15;;;;;;;4.37;3.60;;;;;;;;;;4949377;28;20229;-77
2023/09/26 04:13:46;;;;;;;4.13;3.83;;;;;;;;;;4936188;28;20218;-78
2023/09/26 04:16:14;;;;;;;3.43;3.10;;;;;;;;;;4930393;28;20226;-78
2023/09/26 04:18:48;;;;;;;3.17;2.97;;;;;;;;;;4915634;29;20322;-77
2023/09/26 04:21:13;;;;;;;3.40;3.20;;;;;;;;;;4965651;28;20635;-78
2023/09/26 04:23:39;;;;;;;3.67;3.40;;;;;;;;;;4936089;28;20226;-77
2023/09/26 04:26:14;;;;;;;3.93;3.50;;;;;;;;;;4959135;28;20226;-76
2023/09/26 04:28:44;;;;;;;3.20;3.00;;;;;;;;;;4945827;28;20230;-78
2023/09/26 04:31:18;;;;;;;4.23;3.83;;;;;;;;;;4934016;28;20294;-77
2023/09/26 04:33:52;;;;;;;3.73;3.50;;;;;;;;;;4964890;28;20230;-76
2023/09/26 04:36:17;;;;;;;3.50;3.27;;;;;;;;;;4957552;28;20237;-78
2023/09/26 04:38:43;;;;;;;3.90;3.70;;;;;;;;;;4972921;28;20230;-77
2023/09/26 04:41:11;;;;;;;3.90;3.60;;;;;;;;;;4930373;28;20250;-80
2023/09/26 04:43:39;;;;;;;3.90;3.67;;;;;;;;;;4941741;28;21570;-80
2023/09/26 04:46:14;;;;;;;4.00;3.70;;;;;;;;;;4950649;28;20237;-78
2023/09/26 04:48:40;;;;;;;3.73;3.53;;;;;;;;;;4944112;28;20277;-79
2023/09/26 04:51:12;;;;;;;4.13;3.83;;;;;;;;;;4946086;28;20238;-79
2023/09/26 04:53:37;;;;;;;3.97;3.73;;;;;;;;;;4949806;28;21729;-79
2023/09/26 04:56:03;;;;;;;4.20;3.90;;;;;;;;;;4926669;28;20239;-79
2023/09/26 04:58:30;;;;;;;3.80;3.50;;;;;;;;;;4930009;28;21211;-78
2023/09/26 05:00:56;;;;;;;4.20;3.90;;;;;;;;;;4933506;28;20226;-79
2023/09/26 05:03:24;;;;;;;3.87;3.57;;;;;;;;;;4925932;28;20696;-79
2023/09/26 05:05:50;;;;;;;4.17;3.87;;;;;;;;;;4943466;28;20310;-77
2023/09/26 05:08:23;;;;;;;4.53;4.13;;;;;;;;;;4963859;28;20230;-78
2023/09/26 05:10:49;;;;;;;4.20;3.90;;;;;;;;;;4959122;28;20245;-78
2023/09/26 05:13:22;;;;;;;3.83;3.63;;;;;;;;;;4947628;28;20238;-78
2023/09/26 05:15:51;;;;;;;5.40;3.80;;;;;;;;;;4947017;28;20227;-78
2023/09/26 05:18:16;;;;;;;4.47;3.57;;;;;;;;;;4942140;28;20266;-79
2023/09/26 05:20:44;;;;;;;3.90;3.60;;;;;;;;;;4948479;28;20519;-79
2023/09/26 05:23:12;;;;;;;4.00;3.70;;;;;;;;;;4950459;28;20227;-79
2023/09/26 05:25:38;;;;;;;3.83;3.63;;;;;;;;;;4945740;28;20253;-79
2023/09/26 05:28:06;;;;;;;4.13;3.73;;;;;;;;;;4946853;28;21060;-78
2023/09/26 05:30:31;;;;;;;4.30;3.90;;;;;;;;;;4945019;28;20266;-77
2023/09/26 05:32:59;;;;;;;3.57;3.37;;;;;;;;;;4952169;28;20269;-80
2023/09/26 05:35:25;;;;;;;3.47;3.17;;;;;;;;;;4949121;28;20229;-78
2023/09/26 05:37:51;;;;;;;3.40;3.10;;;;;;;;;;4952926;28;20226;-80
2023/09/26 05:40:17;;;;;;;3.47;3.17;;;;;;;;;;4944883;28;20230;-80
2023/09/26 05:42:42;;;;;;;3.50;3.30;;;;;;;;;;4967730;28;20249;-79
2023/09/26 05:45:14;;;;;;;3.20;3.00;;;;;;;;;;4958894;28;20226;-80
2023/09/26 05:47:39;;;;;;;5.10;3.40;;;;;;;;;;4951780;28;20223;-80
2023/09/26 05:50:06;;;;;;;3.87;3.47;;;;;;;;;;4923353;28;20230;-79
2023/09/26 05:52:31;;;;;;;3.87;3.57;;;;;;;;;;4964394;28;20234;-80
2023/09/26 05:54:57;;;;;;;4.37;3.90;;;;;;;;;;4951518;28;20219;-80
2023/09/26 05:57:22;;;;;;;3.23;3.03;;;;;;;;;;4932288;28;20222;-78
2023/09/26 05:59:48;;;;;;;3.27;3.07;;;;;;;;;;4932033;28;20250;-78
2023/09/26 06:02:16;;;;;;;3.53;3.23;;;;;;;;;;4947842;28;20294;-82
2023/09/26 06:04:44;;;;;;;3.63;3.33;;;;;;;;;;4947000;28;20234;-79
2023/09/26 06:07:14;;;;;;;3.27;2.97;;;;;;;;;;4944304;28;20219;-79
2023/09/26 06:09:40;;;;;;;3.03;2.80;;;;;;;;;;4947703;28;20235;-79
2023/09/26 06:12:09;;;;;;;3.00;2.80;;;;;;;;;;4943995;28;20226;-80
2023/09/26 06:14:34;;;;;;;3.07;2.87;;;;;;;;;;4930438;28;20943;-78
2023/09/26 06:17:00;;;;;;;3.90;3.30;;;;;;;;;;4946619;28;20223;-79
2023/09/26 06:19:31;;;;;;;3.60;3.30;;;;;;;;;;4928774;28;20222;-80
2023/09/26 06:21:56;;;;;;;4.20;3.90;;;;;;;;;;4972100;28;20222;-82
2023/09/26 06:24:25;;;;;;;4.43;3.60;;;;;;;;;;4945091;28;20722;-83
2023/09/26 06:26:51;;;;;;;3.70;3.40;;;;;;;;;;4954685;28;20619;-81
2023/09/26 06:29:16;;;;;;;3.03;2.73;;;;;;;;;;4939802;28;20223;-81
2023/09/26 06:31:42;;;;;;;2.93;2.73;;;;;;;;;;4947603;28;20234;-82
2023/09/26 06:34:08;;;;;;;4.87;3.50;;;;;;;;;;4947612;28;20231;-83
2023/09/26 06:36:34;;;;;;;3.00;2.80;;;;;;;;;;4957470;28;20258;-82
2023/09/26 06:39:00;;;;;;;3.20;3.00;;;;;;;;;;4948648;28;20234;-81
2023/09/26 06:41:28;;;;;;;3.87;3.57;;;;;;;;;;4926038;28;20227;-81
2023/09/26 06:43:54;;;;;;;4.17;3.87;;;;;;;;;;4958500;28;21580;-80
2023/09/26 06:46:19;;;;;;;3.60;3.30;;;;;;;;;;4949415;28;20233;-82
2023/09/26 06:48:45;;;;;;;3.63;3.43;;;;;;;;;;4959618;28;20229;-81
2023/09/26 06:51:11;;;;;;;4.00;3.70;;;;;;;;;;4962102;28;20231;-83
2023/09/26 06:53:39;;;;;;;3.83;3.53;;;;;;;;;;4977008;28;20222;-81
2023/09/26 06:56:08;;;;;;;3.80;3.60;;;;;;;;;;4962632;28;20225;-81
2023/09/26 06:58:36;;;;;;;4.00;3.70;;;;;;;;;;4969676;28;20684;-81
2023/09/26 07:01:03;;;;;;;3.57;3.30;;;;;;;;;;4976413;28;20236;-81
2023/09/26 07:03:28;;;;;;;3.97;3.13;;;;;;;;;;4966899;28;20214;-81
2023/09/26 07:05:56;;;;;;;5.03;3.47;;;;;;;;;;4949699;28;20229;-82
2023/09/26 07:08:25;;;;;;;4.00;3.70;;;;;;;;;;4963806;28;20254;-82
2023/09/26 07:10:53;;;;;;;4.30;3.97;;;;;;;;;;4966560;28;20227;-79
2023/09/26 07:13:19;;;;;;;3.90;3.60;;;;;;;;;;4933328;28;20226;-81
2023/09/26 07:15:46;;;;;;;5.47;4.97;;;;;;;;;;4926279;28;20216;-82
2023/09/26 07:18:15;;;;;;;4.10;3.80;;;;;;;;;;4957960;28;20219;-81
2023/09/26 07:20:46;;;;;;;4.23;3.93;;;;;;;;;;4969698;28;20230;-81
2023/09/26 07:23:11;;;;;;;4.67;4.27;;;;;;;;;;4942664;28;20627;-81
2023/09/26 07:25:38;;;;;;;3.90;3.70;;;;;;;;;;4936368;29;20277;-81
2023/09/26 07:28:05;;;;;;;4.40;3.90;;;;;;;;;;4961763;28;20218;-81
2023/09/26 07:30:31;;;;;;;4.37;3.93;;;;;;;;;;4964684;28;20370;-81
2023/09/26 07:32:56;;;;;;;4.67;3.50;;;;;;;;;;4963986;28;20214;-81
2023/09/26 07:35:25;;;;;;;5.80;3.03;;;;;;;;;;4955050;28;20219;-80
2023/09/26 07:37:54;;;;;;;3.67;3.37;;;;;;;;;;4958718;28;20233;-80
2023/09/26 07:40:19;;;;;;;5.77;3.57;;;;;;;;;;4962414;28;20222;-81
2023/09/26 07:42:45;;;;;;;5.03;3.30;;;;;;;;;;4945333;28;20226;-81
2023/09/26 07:45:11;;;;;;;2.88;2.67;;;;;;;;;;4935778;28;20226;-81
2023/09/26 07:47:36;;;;;;;3.33;3.03;;;;;;;;;;4959267;28;20322;-81
2023/09/26 07:50:02;;;;;;;3.92;3.17;;;;;;;;;;4962332;28;20324;-81
2023/09/26 07:52:28;;;;;;;4.93;3.33;;;;;;;;;;4970858;28;20230;-81
2023/09/26 07:54:56;;;;;;;3.17;2.88;;;;;;;;;;4956249;28;20262;-80
2023/09/26 07:57:22;;;;;;;3.28;2.97;;;;;;;;;;4957747;28;20229;-82
2023/09/26 07:59:47;;;;;;;3.55;3.25;;;;;;;;;;4947439;28;20593;-81
2023/09/26 08:02:13;;;;;;;3.38;3.08;;;;;;;;;;4945597;28;20234;-81
2023/09/26 08:04:38;;;;;;;4.15;2.97;;;;;;;;;;4928942;28;20214;-80
2023/09/26 08:07:04;;;;;;;4.75;3.20;;;;;;;;;;4952780;28;20221;-81
2023/09/26 08:09:31;;;;;;;4.65;3.05;;;;;;;;;;4975635;28;20234;-83
2023/09/26 08:11:56;;;;;;;2.88;2.67;;;;;;;;;;4947926;28;20249;-81
2023/09/26 08:14:24;;;;;;;3.17;2.88;;;;;;;;;;4930386;28;20606;-80
2023/09/26 08:16:50;;;;;;;3.03;2.80;;;;;;;;;;4942678;28;20309;-81
2023/09/26 08:19:16;;;;;;;2.65;2.45;;;;;;;;;;4955032;28;20210;-80
2023/09/26 08:21:45;;;;;;;5.10;3.20;;;;;;;;;;4951450;28;20242;-80
2023/09/26 08:24:11;;;;;;;4.00;2.92;;;;;;;;;;4939146;28;20226;-79
2023/09/26 08:26:38;;;;;;;4.40;3.20;;;;;;;;;;4963392;28;21777;-81
2023/09/26 08:29:07;;;;;;;3.88;3.08;;;;;;;;;;4958021;28;20225;-80
2023/09/26 08:31:34;;;;;;;3.55;3.15;;;;;;;;;;4956813;28;20219;-82
2023/09/26 08:33:59;;;;;;;4.72;2.85;;;;;;;;;;4940428;29;20292;-82
2023/09/26 08:36:28;;;;;;;3.70;2.67;;;;;;;;;;4944604;28;20230;-80
2023/09/26 08:39:00;;;;;;;3.40;3.15;;;;;;;;;;4987707;28;20234;-83
2023/09/26 08:41:33;;;;;;;3.60;3.30;;;;;;;;;;4955415;28;20234;-79
2023/09/26 08:43:59;;;;;;;4.15;3.13;;;;;;;;;;4959374;28;20224;-81
2023/09/26 08:46:24;;;;;;;2.75;2.53;;;;;;;;;;4960638;28;20240;-80
2023/09/26 08:48:50;;;;;;;2.85;2.53;;;;;;;;;;4964511;28;20218;-81
2023/09/26 08:51:15;;;;;;;5.25;2.83;;;;;;;;;;4966440;28;20253;-82
2023/09/26 08:53:43;;;;;;;2.92;2.60;;;;;;;;;;4955265;28;20235;-77
2023/09/26 08:56:14;;;;;;;3.00;2.80;;;;;;;;;;4959864;28;20309;-82
2023/09/26 08:58:41;;;;;;;3.45;2.80;;;;;;;;;;4938023;28;20246;-82
2023/09/26 09:01:06;;;;;;;5.15;3.05;;;;;;;;;;4949166;28;20727;-81
2023/09/26 09:03:32;;;;;;;3.08;2.70;;;;;;;;;;4963249;28;20227;-82
2023/09/26 09:06:00;;;;;;;3.25;2.53;;;;;;;;;;4964169;28;20238;-83
2023/09/26 09:08:26;;;;;;;4.13;2.85;;;;;;;;;;4952499;28;20289;-80
2023/09/26 09:10:54;;;;;;;3.33;3.03;;;;;;;;;;4955723;28;20755;-81
2023/09/26 09:13:29;;;;;;;3.58;3.28;;;;;;;;;;4947870;28;20306;-81
2023/09/26 09:16:11;;;;;;;4.05;2.50;;;;;;;;;;4987419;28;20229;-81
2023/09/26 09:18:38;;;;;;;3.45;2.58;;;;;;;;;;4968509;28;20249;-82
2023/09/26 09:21:32;;;;;;;7.32;3.13;;;;;;;;;;4946155;28;20222;-80
2023/09/26 09:24:07;;;;;;;2.58;2.38;;;;;;;;;;4969184;28;20704;-81
2023/09/26 09:26:36;;;;;;;2.83;2.47;;;;;;;;;;4945374;29;20234;-82
2023/09/26 09:29:18;;;;;;;3.40;2.95;;;;;;;;;;4967399;28;20215;-80
2023/09/26 09:31:46;;;;;;;2.88;2.67;;;;;;;;;;4968993;28;20230;-82
2023/09/26 09:34:12;;;;;;;4.50;2.80;;;;;;;;;;4967383;28;20233;-79
2023/09/26 09:36:38;;;;;;;2.92;2.47;;;;;;;;;;4933827;28;20226;-82
2023/09/26 09:39:04;;;;;;;4.45;2.70;;;;;;;;;;4928934;28;20250;-78
2023/09/26 09:41:31;;;;;;;2.20;2.00;;;;;;;;;;4977619;28;20226;-81
2023/09/26 09:43:59;;;;;;;2.53;2.13;;;;;;;;;;4954278;28;20226;-81
2023/09/26 09:46:27;;;;;;;2.67;2.03;;;;;;;;;;4964586;28;20577;-81
2023/09/26 09:48:54;;;;;;;3.47;2.28;;;;;;;;;;4956039;28;20214;-80
2023/09/26 09:51:19;;;;;;;2.33;2.13;;;;;;;;;;4965523;28;20227;-80
2023/09/26 09:53:52;;;;;;;2.60;2.03;;;;;;;;;;4939518;28;20314;-79
2023/09/26 09:56:20;;;;;;;2.13;2.03;;;;;;;;;;4986346;28;20229;-79
2023/09/26 09:58:50;;;;;;;1.67;1.58;;;;;;;;;;4966855;28;20219;-79
2023/09/26 10:01:18;;;;;;;2.67;1.75;;;;;;;;;;4954993;28;20228;-79
2023/09/26 10:03:44;;;;;;;3.28;2.05;;;;;;;;;;4948981;28;20254;-80
2023/09/26 10:06:10;;;;;;;1.80;1.70;;;;;;;;;;4956835;28;20233;-81
2023/09/26 10:08:36;;;;;;;1.85;1.70;;;;;;;;;;4947414;28;20211;-82
2023/09/26 10:11:02;;;;;;;4.72;2.20;;;;;;;;;;4946814;28;20225;-81
2023/09/26 10:13:28;;;;;;;2.75;1.63;;;;;;;;;;4942969;28;20234;-80
2023/09/26 10:16:17;;;;;;;1.90;1.80;;;;;;;;;;4967687;28;20227;-80
2023/09/26 10:18:44;;;;;;;2.53;1.80;;;;;;;;;;4946363;28;20325;-80
2023/09/26 10:21:22;;;;;;;1.95;1.75;;;;;;;;;;4957624;28;20241;-80
2023/09/26 10:24:07;;;;;;;1.42;1.30;;;;;;;;;;4971892;28;20250;-79
2023/09/26 10:26:33;;;;;;;3.13;1.90;;;;;;;;;;4950820;28;20231;-80
2023/09/26 10:29:17;;;;;;;2.63;1.70;;;;;;;;;;4960930;28;20280;-79
2023/09/26 10:31:55;;;;;;;1.63;1.52;;;;;;;;;;4938271;28;20219;-79
2023/09/26 10:34:28;;;;;;;1.83;1.60;;;;;;;;;;4974389;28;20615;-80
2023/09/26 10:36:55;;;;;;;4.18;1.80;;;;;;;;;;4932795;28;20225;-80
2023/09/26 10:39:38;;;;;;;1.80;1.70;;;;;;;;;;4935940;28;20231;-79
2023/09/26 10:42:11;;;;;;;3.03;1.70;;;;;;;;;;4962210;28;20328;-78
2023/09/26 10:44:38;;;;;;;3.28;1.80;;;;;;;;;;4957875;28;20223;-80
2023/09/26 10:47:04;;;;;;;1.75;1.50;;;;;;;;;;4958168;28;20246;-78
2023/09/26 10:49:31;;;;;;;1.73;1.50;;;;;;;;;;4940036;28;21152;-79
2023/09/26 10:52:04;;;;;;;2.22;1.83;;;;;;;;;;4959433;28;20245;-78
2023/09/26 10:54:30;;;;;;;2.10;1.70;;;;;;;;;;4934818;28;20222;-80
2023/09/26 10:56:58;;;;;;;1.52;1.42;;;;;;;;;;4948617;28;20693;-78
2023/09/26 10:59:32;;;;;;;1.75;1.40;;;;;;;;;;4969174;28;20222;-80
2023/09/26 11:01:58;;;;;;;1.60;1.50;;;;;;;;;;4957304;28;20249;-80
2023/09/26 11:04:27;;;;;;;1.70;1.60;;;;;;;;;;4955000;28;20241;-80
2023/09/26 11:06:53;;;;;;;1.52;1.42;;;;;;;;;;4976062;28;20282;-79
2023/09/26 11:09:18;;;;;;;2.47;1.40;;;;;;;;;;4938057;28;20241;-81
2023/09/26 11:11:44;;;;;;;4.72;1.63;;;;;;;;;;4975983;28;20234;-79
2023/09/26 11:14:11;;;;;;;2.65;1.77;;;;;;;;;;4939309;28;20227;-79
2023/09/26 11:16:39;;;;;;;2.25;1.63;;;;;;;;;;4932711;29;20238;-78
2023/09/26 11:19:09;;;;;;;3.65;1.70;;;;;;;;;;4939137;28;20223;-80
2023/09/26 11:21:35;;;;;;;2.72;1.45;;;;;;;;;;4991322;23;20747;-71
2023/09/26 11:24:16;;;;;;;1.52;1.42;;;;;;;;;;4980619;28;20236;-73
2023/09/26 11:26:45;;;;;;;4.57;1.73;;;;;;;;;;4957130;28;20586;-73
2023/09/26 11:29:10;;;;;;;1.83;1.35;;;;;;;;;;4960603;28;20224;-71
2023/09/26 11:31:36;;;;;;;2.80;1.40;;;;;;;;;;4960772;28;20285;-72
2023/09/26 11:34:04;;;;;;;1.50;1.30;;;;;;;;;;4976376;28;20234;-71
2023/09/26 11:36:32;;;;;;;1.30;1.20;;;;;;;;;;4976427;28;20252;-72
2023/09/26 11:39:05;;;;;;;2.10;1.40;;;;;;;;;;4960321;28;20225;-73
2023/09/26 11:41:35;;;;;;;1.45;1.30;;;;;;;;;;4973328;28;20229;-73
2023/09/26 11:44:10;;;;;;;1.30;1.20;;;;;;;;;;4959893;28;20699;-74
2023/09/26 11:46:41;;;;;;;1.77;1.20;;;;;;;;;;4942259;28;20237;-73
2023/09/26 11:49:07;;;;;;;1.60;1.23;;;;;;;;;;4941938;28;20214;-74
2023/09/26 11:51:33;;;;;;;2.45;1.50;;;;;;;;;;4948135;28;20217;-72
2023/09/26 11:53:58;;;;;;;1.50;1.38;;;;;;;;;;4962381;28;20687;-73
2023/09/26 11:56:29;;;;;;;2.75;1.45;;;;;;;;;;4990691;28;20222;-73
2023/09/26 11:58:57;;;;;;;1.67;1.23;;;;;;;;;;4976635;28;20267;-72
2023/09/26 12:01:23;;;;;;;1.45;1.35;;;;;;;;;;4965247;28;22273;-73
2023/09/26 12:03:50;;;;;;;1.30;1.30;;;;;;;;;;4990521;28;20301;-73
2023/09/26 12:06:16;;;;;;;1.25;1.20;;;;;;;;;;4972654;28;20292;-72
2023/09/26 12:08:44;;;;;;;1.40;1.30;;;;;;;;;;4949252;28;20276;-72
2023/09/26 12:11:11;;;;;;;1.58;1.45;;;;;;;;;;4976914;28;20713;-73
2023/09/26 12:13:39;;;;;;;1.88;1.52;;;;;;;;;;4977212;28;20253;-72
2023/09/26 12:16:05;;;;;;;1.30;1.20;;;;;;;;;;4959560;28;20602;-73
2023/09/26 12:18:33;;;;;;;1.73;1.40;;;;;;;;;;4954311;28;20730;-72
2023/09/26 12:21:00;;;;;;;1.10;1.10;;;;;;;;;;4957416;28;20228;-73
2023/09/26 12:23:28;;;;;;;1.40;1.30;;;;;;;;;;4941943;28;20217;-73
2023/09/26 12:25:53;;;;;;;2.78;1.42;;;;;;;;;;4943797;28;20738;-72
2023/09/26 12:28:22;;;;;;;2.22;1.40;;;;;;;;;;4958688;28;20259;-73
2023/09/26 12:30:50;;;;;;;1.50;1.40;;;;;;;;;;4942244;28;20226;-72
2023/09/26 12:33:18;;;;;;;2.45;1.48;;;;;;;;;;4959981;28;20216;-72
2023/09/26 12:35:44;;;;;;;1.88;1.40;;;;;;;;;;4971956;28;20226;-72
2023/09/26 12:38:14;;;;;;;1.70;1.17;;;;;;;;;;4977232;28;20703;-72
2023/09/26 12:40:40;;;;;;;1.25;1.15;;;;;;;;;;4980117;28;20229;-71
2023/09/26 12:43:10;;;;;;;2.67;1.55;;;;;;;;;;4949301;28;20220;-72
2023/09/26 12:45:40;;;;;;;1.85;1.45;;;;;;;;;;4962737;28;20234;-72
2023/09/26 12:48:06;;;;;;;1.60;1.20;;;;;;;;;;4994916;28;20275;-73
2023/09/26 12:50:32;;;;;;;2.17;1.45;;;;;;;;;;4978914;28;20233;-73
2023/09/26 12:53:02;;;;;;;1.52;1.42;;;;;;;;;;4962736;28;20228;-73
2023/09/26 12:55:28;;;;;;;1.50;1.40;;;;;;;;;;4976070;28;20706;-73
2023/09/26 12:57:57;;;;;;;1.73;1.13;;;;;;;;;;4949469;28;20226;-73
2023/09/26 13:00:25;;;;;;;1.80;1.55;;;;;;;;;;4991666;28;20214;-72
2023/09/26 13:02:52;;;;;;;2.53;1.33;;;;;;;;;;4962246;28;20233;-72
2023/09/26 13:05:18;;;;;;;4.53;1.70;;;;;;;;;;4976711;28;20272;-73
2023/09/26 13:07:44;;;;;;;3.08;1.55;;;;;;;;;;4964244;28;20234;-73
2023/09/26 13:10:16;;;;;;;2.42;1.35;;;;;;;;;;4945836;28;20269;-73
2023/09/26 13:12:44;;;;;;;2.70;1.42;;;;;;;;;;4973849;28;20238;-73
2023/09/26 13:15:10;;;;;;;1.73;1.60;;;;;;;;;;4974686;28;20288;-73
2023/09/26 13:17:36;;;;;;;7.47;1.60;;;;;;;;;;4961714;28;20240;-73
2023/09/26 13:20:04;;;;;;;2.53;1.70;;;;;;;;;;4960025;28;20210;-72
2023/09/26 13:22:32;;;;;;;1.35;1.25;;;;;;;;;;4977260;28;20214;-73
2023/09/26 13:25:00;;;;;;;1.50;1.40;;;;;;;;;;4975187;28;20268;-73
2023/09/26 13:27:25;;;;;;;1.83;1.52;;;;;;;;;;4975172;28;20228;-73
2023/09/26 13:29:53;;;;;;;1.63;1.45;;;;;;;;;;4943577;28;20229;-72
2023/09/26 13:32:19;;;;;;;1.40;1.30;;;;;;;;;;4960319;28;20281;-72
2023/09/26 13:34:47;;;;;;;2.08;1.48;;;;;;;;;;4993515;28;20229;-72
2023/09/26 13:37:13;;;;;;;2.55;1.60;;;;;;;;;;4985355;28;20209;-72
2023/09/26 13:39:41;;;;;;;2.97;1.63;;;;;;;;;;4973391;28;20639;-72
2023/09/26 13:42:11;;;;;;;2.20;1.50;;;;;;;;;;4990984;28;20285;-73
2023/09/26 13:44:41;;;;;;;1.70;1.50;;;;;;;;;;4975475;28;20218;-73
2023/09/26 13:47:07;;;;;;;2.47;1.38;;;;;;;;;;4975895;28;20298;-73
2023/09/26 13:49:34;;;;;;;3.97;1.50;;;;;;;;;;4948143;28;20230;-73
2023/09/26 13:52:00;;;;;;;2.38;1.60;;;;;;;;;;4974734;28;20712;-73
2023/09/26 13:54:26;;;;;;;1.73;1.63;;;;;;;;;;4978769;28;20229;-72
2023/09/26 13:56:57;;;;;;;2.25;1.63;;;;;;;;;;4978642;28;20238;-72
2023/09/26 13:59:25;;;;;;;3.50;1.75;;;;;;;;;;4960838;28;20228;-72
2023/09/26 14:01:50;;;;;;;2.28;1.38;;;;;;;;;;4936971;28;20582;-73
2023/09/26 14:04:16;;;;;;;3.38;1.50;;;;;;;;;;4948659;28;20400;-72
2023/09/26 14:06:44;;;;;;;1.42;1.33;;;;;;;;;;4957949;28;21010;-72
2023/09/26 14:09:09;;;;;;;2.50;1.60;;;;;;;;;;4945584;28;20639;-72
2023/09/26 14:11:35;;;;;;;1.58;1.40;;;;;;;;;;4949176;28;20218;-73
2023/09/26 14:14:03;;;;;;;1.60;1.50;;;;;;;;;;4957744;28;20227;-72
2023/09/26 14:16:31;;;;;;;1.30;1.13;;;;;;;;;;4966370;28;20232;-73
2023/09/26 14:18:59;;;;;;;2.25;1.63;;;;;;;;;;4944396;28;20361;-73
2023/09/26 14:21:24;;;;;;;1.63;1.52;;;;;;;;;;4961643;28;20225;-72
2023/09/26 14:23:52;;;;;;;3.50;1.70;;;;;;;;;;4965302;28;20237;-72
2023/09/26 14:26:23;;;;;;;1.70;1.60;;;;;;;;;;4943292;28;20252;-72
2023/09/26 14:28:49;;;;;;;3.50;1.50;;;;;;;;;;4977928;28;20684;-73
2023/09/26 14:31:19;;;;;;;2.13;1.40;;;;;;;;;;4963480;28;20321;-72
2023/09/26 14:33:45;;;;;;;3.17;1.50;;;;;;;;;;4950777;28;20218;-73
2023/09/26 14:36:13;;;;;;;1.50;1.40;;;;;;;;;;4943778;28;20215;-73
2023/09/26 14:38:41;;;;;;;1.33;1.23;;;;;;;;;;4992042;28;20234;-73
2023/09/26 14:41:07;;;;;;;1.73;1.60;;;;;;;;;;4950864;28;20711;-73
2023/09/26 14:43:35;;;;;;;1.52;1.40;;;;;;;;;;4943930;28;20276;-73
2023/09/26 14:46:01;;;;;;;1.67;1.23;;;;;;;;;;4976150;28;20269;-73
2023/09/26 14:48:28;;;;;;;3.13;1.63;;;;;;;;;;4956932;28;20222;-73
2023/09/26 14:50:57;;;;;;;1.77;1.40;;;;;;;;;;4955577;28;20237;-73